Time;durP1;ratioP1;P1;durP2;ratioP2;P2;SDS_P1;SDS_P2;PMS_P1;PMS_P2;Temp;Humidity;BMP_temperature;BMP_pressure;BME280_temperature;BME280_humidity;BME280_pressure;Samples;Min_cycle;Max_cycle;Signal;HPM_P1;HPM_P2
2021/06/08 00:00:21;;;;;;;4.90;3.40;;;16.70;99.90;;;;;;5093740;28;20181;-79
2021/06/08 00:02:47;;;;;;;3.80;2.70;;;16.70;99.90;;;;;;5094821;28;20620;-80
2021/06/08 00:05:13;;;;;;;5.73;2.90;;;16.70;99.90;;;;;;5093607;28;20185;-80
2021/06/08 00:07:38;;;;;;;3.07;2.77;;;16.70;99.90;;;;;;5077112;28;20183;-80
2021/06/08 00:10:05;;;;;;;3.70;2.93;;;16.70;99.90;;;;;;5076491;28;20208;-79
2021/06/08 00:12:30;;;;;;;4.77;3.20;;;16.70;99.90;;;;;;5093954;28;20668;-80
2021/06/08 00:14:56;;;;;;;3.77;3.00;;;16.70;99.90;;;;;;5076562;28;20259;-81
2021/06/08 00:17:21;;;;;;;3.87;2.97;;;16.70;99.90;;;;;;5076436;28;20198;-80
2021/06/08 00:19:47;;;;;;;6.30;3.47;;;16.70;99.90;;;;;;5093572;28;20793;-80
2021/06/08 00:22:13;;;;;;;3.57;3.13;;;16.70;99.90;;;;;;5093758;28;20208;-81
2021/06/08 00:24:39;;;;;;;4.63;3.73;;;16.70;99.90;;;;;;5076629;28;20207;-81
2021/06/08 00:27:04;;;;;;;7.23;4.10;;;16.70;99.90;;;;;;5076302;28;20193;-79
2021/06/08 00:29:30;;;;;;;5.27;4.27;;;16.70;99.90;;;;;;5093095;28;20692;-79
2021/06/08 00:32:11;;;;;;;8.20;4.80;;;16.80;99.90;;;;;;5061331;28;20216;-80
2021/06/08 00:34:36;;;;;;;7.20;4.17;;;16.80;99.90;;;;;;5077528;28;20551;-80
2021/06/08 00:37:02;;;;;;;6.10;4.67;;;16.80;99.90;;;;;;5095450;28;20537;-80
2021/06/08 00:39:27;;;;;;;7.27;5.13;;;16.80;99.90;;;;;;5094361;28;20181;-80
2021/06/08 00:41:53;;;;;;;8.47;5.87;;;16.90;99.90;;;;;;5094588;28;20196;-80
2021/06/08 00:44:18;;;;;;;6.90;5.13;;;16.90;99.90;;;;;;5095339;28;20205;-80
2021/06/08 00:46:45;;;;;;;7.23;5.00;;;16.90;99.90;;;;;;5094820;28;20293;-80
2021/06/08 00:49:11;;;;;;;7.57;5.30;;;17.00;99.90;;;;;;5094470;28;20219;-80
2021/06/08 00:51:37;;;;;;;7.70;5.50;;;17.00;99.90;;;;;;5094826;28;20197;-80
2021/06/08 00:54:06;;;;;;;7.63;5.63;;;17.00;99.90;;;;;;5095786;28;20196;-80
2021/06/08 00:56:33;;;;;;;9.63;6.17;;;17.00;99.90;;;;;;5094142;28;20172;-80
2021/06/08 00:58:59;;;;;;;9.00;5.90;;;17.00;99.90;;;;;;5098661;28;20177;-80
2021/06/08 01:01:24;;;;;;;7.50;5.53;;;17.10;99.90;;;;;;5105818;28;20205;-80
2021/06/08 01:03:50;;;;;;;8.67;5.60;;;17.10;99.90;;;;;;5099234;28;20306;-81
2021/06/08 01:06:16;;;;;;;8.80;6.60;;;17.00;99.90;;;;;;5098357;28;20231;-80
2021/06/08 01:08:41;;;;;;;8.00;5.53;;;17.10;99.90;;;;;;5097862;28;20233;-80
2021/06/08 01:11:07;;;;;;;8.67;6.13;;;17.00;99.90;;;;;;5095975;28;20196;-79
2021/06/08 01:13:32;;;;;;;8.77;6.40;;;17.00;99.90;;;;;;5092345;28;20185;-80
2021/06/08 01:15:58;;;;;;;6.87;5.60;;;16.90;99.90;;;;;;5092572;28;20644;-80
2021/06/08 01:18:24;;;;;;;8.03;6.27;;;16.80;99.90;;;;;;5076410;28;20556;-80
2021/06/08 01:21:11;;;;;;;6.80;5.40;;;16.70;99.90;;;;;;5092316;28;20188;-80
2021/06/08 01:23:37;;;;;;;11.13;6.53;;;16.70;99.90;;;;;;5075343;28;20181;-80
2021/06/08 01:26:03;;;;;;;7.83;5.63;;;16.60;99.90;;;;;;5091700;28;20577;-80
2021/06/08 01:28:30;;;;;;;7.97;6.33;;;16.50;99.90;;;;;;5092325;28;20607;-80
2021/06/08 01:30:55;;;;;;;8.97;5.93;;;16.50;99.90;;;;;;5092171;28;20196;-80
2021/06/08 01:33:22;;;;;;;8.67;6.07;;;16.40;99.90;;;;;;5076056;28;20173;-80
2021/06/08 01:35:48;;;;;;;8.07;5.80;;;16.30;99.90;;;;;;5076018;28;20203;-80
2021/06/08 01:38:14;;;;;;;8.77;6.10;;;16.30;99.90;;;;;;5094832;28;20177;-79
2021/06/08 01:40:40;;;;;;;9.17;6.00;;;16.20;99.90;;;;;;5076734;28;20187;-80
2021/06/08 01:43:06;;;;;;;7.73;6.00;;;16.10;99.90;;;;;;5092672;28;20199;-80
2021/06/08 01:45:31;;;;;;;9.47;6.40;;;16.00;99.90;;;;;;5093320;28;20173;-80
2021/06/08 01:47:57;;;;;;;7.40;5.53;;;16.00;99.90;;;;;;5092273;28;20177;-81
2021/06/08 01:50:22;;;;;;;10.30;6.23;;;15.90;99.90;;;;;;5092465;28;20205;-80
2021/06/08 01:53:08;;;;;;;8.23;6.37;;;15.90;99.90;;;;;;5092405;28;20233;-80
2021/06/08 01:55:36;;;;;;;8.90;6.23;;;15.80;99.90;;;;;;5076138;28;20200;-80
2021/06/08 01:58:04;;;;;;;9.60;6.40;;;15.80;99.90;;;;;;5092373;28;20180;-79
2021/06/08 02:00:34;;;;;;;8.23;6.33;;;15.70;99.90;;;;;;5092125;28;20186;-80
2021/06/08 02:03:00;;;;;;;9.67;6.53;;;15.70;99.90;;;;;;5094798;28;20177;-80
2021/06/08 02:05:34;;;;;;;8.53;6.03;;;15.60;99.90;;;;;;5093548;28;20176;-80
2021/06/08 02:07:59;;;;;;;10.27;6.87;;;15.60;99.90;;;;;;5096414;28;20213;-81
2021/06/08 02:10:47;;;;;;;10.33;6.80;;;15.50;99.90;;;;;;5097684;28;20196;-81
2021/06/08 02:13:28;;;;;;;9.10;6.77;;;15.50;99.90;;;;;;5096289;28;20196;-80
2021/06/08 02:15:58;;;;;;;10.37;6.67;;;15.40;99.90;;;;;;5095475;28;20179;-81
2021/06/08 02:18:25;;;;;;;9.40;6.63;;;15.40;99.90;;;;;;5078767;28;20192;-80
2021/06/08 02:20:51;;;;;;;9.67;6.60;;;15.30;99.90;;;;;;5095638;28;20176;-79
2021/06/08 02:23:19;;;;;;;9.47;6.20;;;15.30;99.90;;;;;;5096090;28;20181;-80
2021/06/08 02:25:45;;;;;;;8.87;6.80;;;15.30;99.90;;;;;;5095538;28;20196;-80
2021/06/08 02:28:12;;;;;;;10.40;7.50;;;15.20;99.90;;;;;;5095472;28;20545;-80
2021/06/08 02:30:38;;;;;;;10.97;7.00;;;15.20;99.90;;;;;;5078590;28;20177;-80
2021/06/08 02:33:04;;;;;;;11.73;7.20;;;15.10;99.90;;;;;;5078455;28;20226;-80
2021/06/08 02:35:30;;;;;;;9.93;6.60;;;15.10;99.90;;;;;;5094683;28;20554;-80
2021/06/08 02:37:55;;;;;;;10.00;7.13;;;15.10;99.90;;;;;;5094954;28;20173;-79
2021/06/08 02:40:21;;;;;;;10.10;7.63;;;15.10;99.90;;;;;;5095314;28;20257;-80
2021/06/08 02:42:46;;;;;;;12.60;7.67;;;15.10;99.90;;;;;;5077378;28;20550;-79
2021/06/08 02:45:12;;;;;;;9.20;6.77;;;15.10;99.90;;;;;;5095498;28;20234;-81
2021/06/08 02:47:38;;;;;;;11.20;7.43;;;15.00;99.90;;;;;;5095275;28;20216;-79
2021/06/08 02:50:05;;;;;;;10.37;6.97;;;15.00;99.90;;;;;;5094579;28;20480;-79
2021/06/08 02:52:31;;;;;;;10.33;7.40;;;15.00;99.90;;;;;;5095066;28;20290;-80
2021/06/08 02:54:58;;;;;;;10.93;7.37;;;14.90;99.90;;;;;;5078421;28;20187;-81
2021/06/08 02:57:24;;;;;;;9.40;7.07;;;14.90;99.90;;;;;;5078365;28;20173;-80
2021/06/08 02:59:50;;;;;;;10.70;7.10;;;14.80;99.90;;;;;;5094975;28;20184;-80
2021/06/08 03:02:16;;;;;;;9.63;7.10;;;14.80;99.90;;;;;;5095099;28;20220;-80
2021/06/08 03:05:02;;;;;;;11.90;7.33;;;14.80;99.90;;;;;;5094849;28;20281;-79
2021/06/08 03:07:28;;;;;;;10.80;7.23;;;14.70;99.90;;;;;;5094458;28;20186;-80
2021/06/08 03:09:57;;;;;;;12.57;7.77;;;14.70;99.90;;;;;;5094413;28;20204;-80
2021/06/08 03:12:26;;;;;;;11.03;7.20;;;14.60;99.90;;;;;;5094262;28;20655;-79
2021/06/08 03:14:52;;;;;;;10.00;6.90;;;14.50;99.90;;;;;;5094146;28;20539;-80
2021/06/08 03:17:17;;;;;;;10.40;7.10;;;14.50;99.90;;;;;;5076744;28;20259;-79
2021/06/08 03:19:45;;;;;;;9.23;6.37;;;14.40;99.90;;;;;;5077482;28;20636;-81
2021/06/08 03:22:13;;;;;;;10.57;6.80;;;14.40;99.90;;;;;;5094363;28;20197;-80
2021/06/08 03:24:40;;;;;;;7.50;5.90;;;14.30;99.90;;;;;;5093702;28;20193;-79
2021/06/08 03:27:06;;;;;;;9.07;6.10;;;14.30;99.90;;;;;;5094403;28;20180;-80
2021/06/08 03:29:32;;;;;;;9.57;6.10;;;14.30;99.90;;;;;;5096400;28;20284;-79
2021/06/08 03:31:58;;;;;;;7.90;5.80;;;14.20;99.90;;;;;;5060711;28;20220;-80
2021/06/08 03:34:23;;;;;;;8.47;5.47;;;14.20;99.90;;;;;;5068714;28;20246;-80
2021/06/08 03:36:50;;;;;;;8.87;5.93;;;14.10;99.90;;;;;;5077301;28;20268;-80
2021/06/08 03:39:16;;;;;;;8.07;5.90;;;14.10;99.90;;;;;;5077012;28;20211;-79
2021/06/08 03:41:43;;;;;;;8.30;5.63;;;14.10;99.90;;;;;;5076581;28;20649;-79
2021/06/08 03:44:08;;;;;;;7.80;5.73;;;14.00;99.90;;;;;;5076870;28;20184;-79
2021/06/08 03:46:35;;;;;;;7.77;5.00;;;14.00;99.90;;;;;;5076738;28;20188;-79
2021/06/08 03:49:00;;;;;;;5.80;4.43;;;13.90;99.90;;;;;;5077078;28;20690;-79
2021/06/08 03:51:29;;;;;;;7.67;4.47;;;13.90;99.90;;;;;;5076685;28;20197;-80
2021/06/08 03:53:55;;;;;;;5.60;4.03;;;13.80;99.90;;;;;;5077272;28;20176;-80
2021/06/08 03:56:21;;;;;;;6.33;4.40;;;13.80;99.90;;;;;;5076896;28;20547;-79
2021/06/08 03:58:46;;;;;;;5.90;4.07;;;13.80;99.90;;;;;;5076952;28;20177;-80
2021/06/08 04:01:12;;;;;;;5.13;3.30;;;13.80;99.90;;;;;;5076554;28;20199;-79
2021/06/08 04:03:38;;;;;;;5.00;3.60;;;13.70;99.90;;;;;;5081379;28;20188;-81
2021/06/08 04:06:04;;;;;;;4.47;3.37;;;13.70;99.90;;;;;;5101070;28;20594;-82
2021/06/08 04:08:29;;;;;;;3.90;3.10;;;13.60;99.90;;;;;;5084025;28;20204;-80
2021/06/08 04:10:55;;;;;;;4.97;3.50;;;13.50;99.90;;;;;;5101021;28;20217;-80
2021/06/08 04:13:21;;;;;;;4.37;3.10;;;13.60;99.90;;;;;;5100730;28;20648;-81
2021/06/08 04:15:48;;;;;;;5.00;3.10;;;13.50;99.90;;;;;;5100129;28;20184;-80
2021/06/08 04:18:14;;;;;;;4.13;3.07;;;13.50;99.90;;;;;;5102459;28;20177;-81
2021/06/08 04:20:39;;;;;;;3.50;2.77;;;13.50;99.90;;;;;;5101768;28;20363;-80
2021/06/08 04:23:05;;;;;;;4.10;3.00;;;13.50;99.90;;;;;;5100343;28;20178;-81
2021/06/08 04:25:31;;;;;;;3.57;2.73;;;13.50;99.90;;;;;;5095983;28;20627;-80
2021/06/08 04:27:56;;;;;;;5.23;2.70;;;13.40;99.90;;;;;;5095537;28;20691;-79
2021/06/08 04:30:22;;;;;;;3.77;2.67;;;13.50;99.90;;;;;;5094078;28;20664;-79
2021/06/08 04:32:48;;;;;;;3.83;2.50;;;13.50;99.90;;;;;;5095449;28;20201;-79
2021/06/08 04:35:15;;;;;;;3.17;2.60;;;13.50;99.90;;;;;;5094915;28;20408;-79
2021/06/08 04:37:40;;;;;;;3.33;2.50;;;13.50;99.90;;;;;;5094294;28;20173;-79
2021/06/08 04:40:08;;;;;;;6.30;2.70;;;13.50;99.90;;;;;;5093517;28;20199;-79
2021/06/08 04:42:37;;;;;;;3.37;2.70;;;13.50;99.90;;;;;;5098533;28;20574;-80
2021/06/08 04:45:04;;;;;;;3.00;2.30;;;13.50;99.90;;;;;;5099133;28;20173;-80
2021/06/08 04:47:29;;;;;;;3.87;2.30;;;13.50;99.90;;;;;;5098604;28;20188;-80
2021/06/08 04:49:55;;;;;;;3.43;2.63;;;13.50;99.90;;;;;;5098966;28;20743;-80
2021/06/08 04:52:20;;;;;;;3.83;2.40;;;13.50;99.90;;;;;;5099064;28;20193;-80
2021/06/08 04:54:46;;;;;;;3.83;2.50;;;13.50;99.90;;;;;;5081662;28;20193;-82
2021/06/08 04:57:13;;;;;;;5.47;2.50;;;13.50;99.90;;;;;;5097868;28;20694;-82
2021/06/08 05:00:05;;;;;;;3.87;2.70;;;13.50;99.90;;;;;;5097940;28;20272;-81
2021/06/08 05:02:45;;;;;;;3.80;2.80;;;13.50;99.90;;;;;;5080573;28;20201;-81
2021/06/08 05:05:18;;;;;;;4.37;2.80;;;13.50;99.90;;;;;;5101175;28;20172;-80
2021/06/08 05:08:13;;;;;;;3.77;2.37;;;13.50;99.90;;;;;;5102890;28;20180;-79
2021/06/08 05:11:02;;;;;;;3.03;2.43;;;13.50;99.90;;;;;;5087984;28;20219;-80
2021/06/08 05:13:27;;;;;;;3.83;2.87;;;13.50;99.90;;;;;;5093152;28;20224;-79
2021/06/08 05:15:53;;;;;;;5.03;2.80;;;13.50;99.90;;;;;;5100723;28;20173;-80
2021/06/08 05:18:19;;;;;;;5.07;2.83;;;13.50;99.90;;;;;;5088905;28;20177;-83
2021/06/08 05:20:45;;;;;;;5.20;2.80;;;13.50;99.90;;;;;;5096219;28;20176;-83
2021/06/08 05:23:11;;;;;;;3.20;2.70;;;13.60;99.90;;;;;;5087344;28;20196;-81
2021/06/08 05:25:39;;;;;;;4.07;2.80;;;13.70;99.90;;;;;;5109412;28;20184;-81
2021/06/08 05:28:05;;;;;;;5.13;2.97;;;13.70;99.90;;;;;;5095816;28;20180;-82
2021/06/08 05:30:30;;;;;;;3.67;2.30;;;13.80;99.90;;;;;;5122187;28;20643;-82
2021/06/08 05:32:56;;;;;;;3.13;2.53;;;13.90;99.90;;;;;;5106511;28;20199;-82
2021/06/08 05:35:26;;;;;;;3.00;2.70;;;13.90;99.90;;;;;;5101364;28;20184;-82
2021/06/08 05:37:51;;;;;;;4.53;2.70;;;13.90;99.90;;;;;;5082994;28;20173;-81
2021/06/08 05:40:17;;;;;;;3.47;2.50;;;14.00;99.90;;;;;;5074294;28;20176;-82
2021/06/08 05:42:45;;;;;;;5.50;2.70;;;14.00;99.90;;;;;;5093596;28;20192;-85
2021/06/08 05:45:11;;;;;;;4.47;2.43;;;14.10;99.90;;;;;;5092959;28;20179;-80
2021/06/08 05:47:36;;;;;;;3.83;2.53;;;14.10;99.90;;;;;;5083961;28;20185;-83
2021/06/08 05:50:02;;;;;;;4.03;2.80;;;14.20;99.90;;;;;;5096310;28;20197;-80
2021/06/08 05:52:28;;;;;;;3.17;2.87;;;14.20;99.90;;;;;;5101957;28;20727;-80
2021/06/08 05:54:53;;;;;;;3.43;2.77;;;14.30;99.90;;;;;;5104166;28;20174;-80
2021/06/08 05:57:19;;;;;;;5.37;2.87;;;14.30;99.90;;;;;;5124507;28;20207;-81
2021/06/08 05:59:44;;;;;;;3.73;2.40;;;14.40;99.90;;;;;;5126147;28;20191;-80
2021/06/08 06:02:13;;;;;;;5.60;2.90;;;14.40;99.90;;;;;;5109102;28;20196;-81
2021/06/08 06:04:38;;;;;;;4.63;2.70;;;14.40;99.90;;;;;;5109231;28;20191;-79
2021/06/08 06:07:04;;;;;;;5.00;2.77;;;14.60;99.90;;;;;;5109360;28;20184;-82
2021/06/08 06:09:31;;;;;;;4.87;3.20;;;14.60;99.90;;;;;;5108691;28;20248;-81
2021/06/08 06:11:57;;;;;;;4.70;2.87;;;14.70;99.90;;;;;;5135403;28;20264;-79
2021/06/08 06:14:23;;;;;;;2.97;2.40;;;14.80;99.90;;;;;;5140916;27;20157;-80
2021/06/08 06:16:52;;;;;;;4.10;2.63;;;14.80;99.90;;;;;;5123493;27;20202;-80
2021/06/08 06:19:18;;;;;;;3.67;2.67;;;14.80;99.90;;;;;;5110880;28;20172;-81
2021/06/08 06:21:44;;;;;;;4.60;3.00;;;14.80;99.90;;;;;;5105880;28;20211;-80
2021/06/08 06:24:10;;;;;;;4.47;2.80;;;14.80;99.90;;;;;;5123467;28;20172;-79
2021/06/08 06:26:36;;;;;;;5.00;3.13;;;14.70;99.90;;;;;;5105731;28;20240;-80
2021/06/08 06:29:02;;;;;;;5.47;2.93;;;14.80;99.90;;;;;;5105348;28;20231;-80
2021/06/08 06:31:27;;;;;;;5.27;2.83;;;14.90;99.90;;;;;;5103297;28;20223;-80
2021/06/08 06:33:57;;;;;;;5.57;2.80;;;14.90;99.90;;;;;;5103221;28;20180;-79
2021/06/08 06:36:23;;;;;;;5.17;3.07;;;14.90;99.90;;;;;;5120640;28;20164;-79
2021/06/08 06:38:50;;;;;;;6.27;3.10;;;15.00;99.90;;;;;;5121947;28;20183;-79
2021/06/08 06:41:15;;;;;;;4.47;3.00;;;15.10;99.90;;;;;;5120153;28;20203;-78
2021/06/08 06:43:48;;;;;;;7.23;3.40;;;15.10;99.90;;;;;;5102818;28;20266;-79
2021/06/08 06:46:14;;;;;;;4.00;2.60;;;15.20;99.90;;;;;;5084236;28;20168;-78
2021/06/08 06:48:40;;;;;;;3.50;2.70;;;15.30;99.90;;;;;;5093196;28;20628;-78
2021/06/08 06:51:06;;;;;;;5.87;3.00;;;15.40;99.90;;;;;;5080143;28;20260;-79
2021/06/08 06:53:31;;;;;;;4.23;2.80;;;15.50;99.90;;;;;;5083822;28;20181;-77
2021/06/08 06:55:57;;;;;;;4.37;3.10;;;15.50;99.90;;;;;;5081717;28;20169;-78
2021/06/08 06:58:22;;;;;;;3.87;2.87;;;15.70;99.90;;;;;;5081489;28;20193;-78
2021/06/08 07:00:48;;;;;;;3.57;3.10;;;15.90;99.90;;;;;;5081368;28;20169;-78
2021/06/08 07:03:15;;;;;;;5.53;3.60;;;16.00;99.90;;;;;;5080366;28;20252;-79
2021/06/08 07:05:42;;;;;;;5.03;3.10;;;16.20;99.90;;;;;;5104557;28;20176;-77
2021/06/08 07:08:08;;;;;;;5.00;3.33;;;16.40;99.90;;;;;;5066621;28;20192;-78
2021/06/08 07:10:36;;;;;;;5.57;3.60;;;16.50;99.90;;;;;;5066046;28;20205;-79
2021/06/08 07:13:06;;;;;;;4.40;3.47;;;16.50;99.90;;;;;;5088602;28;20168;-78
2021/06/08 07:15:32;;;;;;;8.43;4.13;;;16.60;99.90;;;;;;5102474;28;20183;-80
2021/06/08 07:17:57;;;;;;;6.30;4.37;;;16.60;99.90;;;;;;5118467;28;20585;-78
2021/06/08 07:20:24;;;;;;;6.33;4.03;;;16.70;99.90;;;;;;5117033;28;20221;-78
2021/06/08 07:22:49;;;;;;;8.30;5.00;;;16.80;99.90;;;;;;5100091;28;20259;-78
2021/06/08 07:25:16;;;;;;;9.80;6.10;;;16.90;99.90;;;;;;5116894;28;20271;-78
2021/06/08 07:27:42;;;;;;;8.53;5.77;;;17.00;99.90;;;;;;5099950;28;20229;-78
2021/06/08 07:30:08;;;;;;;8.40;5.30;;;17.00;99.90;;;;;;5099715;28;20204;-78
2021/06/08 07:32:37;;;;;;;7.93;5.30;;;17.10;99.90;;;;;;5116013;28;20192;-78
2021/06/08 07:35:13;;;;;;;8.83;5.57;;;17.10;99.90;;;;;;5116110;28;20168;-78
2021/06/08 07:37:40;;;;;;;8.60;5.73;;;17.20;99.90;;;;;;5100115;28;20202;-78
2021/06/08 07:40:08;;;;;;;8.43;5.33;;;17.30;99.90;;;;;;5116093;28;20172;-78
2021/06/08 07:42:41;;;;;;;8.90;5.90;;;17.40;99.90;;;;;;5117786;28;20295;-78
2021/06/08 07:45:11;;;;;;;9.23;5.50;;;17.50;99.90;;;;;;5118295;28;20563;-78
2021/06/08 07:47:37;;;;;;;7.03;5.13;;;17.60;99.90;;;;;;5101695;28;20176;-78
2021/06/08 07:50:05;;;;;;;8.37;5.33;;;17.60;99.90;;;;;;5118508;28;20207;-78
2021/06/08 07:52:30;;;;;;;8.37;5.30;;;17.70;99.90;;;;;;5101248;28;20259;-78
2021/06/08 07:54:56;;;;;;;6.40;4.70;;;17.90;99.90;;;;;;5118511;28;20257;-78
2021/06/08 07:57:23;;;;;;;8.27;5.30;;;17.90;99.90;;;;;;5118735;28;20174;-78
2021/06/08 07:59:50;;;;;;;8.60;5.43;;;18.00;99.90;;;;;;5100994;28;20233;-78
2021/06/08 08:02:22;;;;;;;8.90;5.53;;;18.00;99.90;;;;;;5117670;28;20214;-78
2021/06/08 08:04:51;;;;;;;9.30;5.53;;;18.00;99.90;;;;;;5100575;28;20176;-78
2021/06/08 08:07:24;;;;;;;8.33;5.20;;;18.10;99.90;;;;;;5101776;28;20168;-78
2021/06/08 08:09:50;;;;;;;6.40;4.77;;;18.20;99.90;;;;;;5117663;28;20196;-77
2021/06/08 08:12:16;;;;;;;7.73;5.47;;;18.50;99.90;;;;;;5101072;28;20559;-78
2021/06/08 08:14:43;;;;;;;8.13;5.53;;;18.60;99.90;;;;;;5100071;28;20199;-78
2021/06/08 08:17:09;;;;;;;8.37;5.47;;;18.80;99.90;;;;;;5100081;28;20179;-78
2021/06/08 08:19:35;;;;;;;7.87;5.47;;;18.90;99.90;;;;;;5117374;28;20191;-78
2021/06/08 08:22:01;;;;;;;8.37;5.50;;;19.00;99.90;;;;;;5101393;28;20196;-78
2021/06/08 08:24:27;;;;;;;7.10;5.53;;;19.10;99.90;;;;;;5117449;28;20192;-78
2021/06/08 08:26:53;;;;;;;8.77;5.10;;;19.10;99.90;;;;;;5117923;28;20169;-78
2021/06/08 08:29:19;;;;;;;8.03;5.20;;;19.40;99.90;;;;;;5100035;28;20214;-78
2021/06/08 08:31:44;;;;;;;8.60;5.47;;;19.60;99.90;;;;;;5100626;28;20231;-78
2021/06/08 08:34:10;;;;;;;9.33;5.20;;;19.80;99.90;;;;;;5117703;28;20172;-78
2021/06/08 08:36:38;;;;;;;8.10;5.40;;;20.00;99.90;;;;;;5118843;28;20701;-78
2021/06/08 08:39:05;;;;;;;7.47;4.60;;;20.10;99.90;;;;;;5117557;28;20229;-78
2021/06/08 08:41:31;;;;;;;8.00;5.00;;;20.30;99.90;;;;;;5117269;28;20286;-79
2021/06/08 08:43:56;;;;;;;9.03;4.83;;;20.60;99.90;;;;;;5097669;28;20216;-77
2021/06/08 08:46:22;;;;;;;6.50;4.70;;;20.80;99.90;;;;;;5096978;28;20184;-78
2021/06/08 08:48:53;;;;;;;8.23;4.90;;;20.90;99.90;;;;;;5094715;28;20207;-77
2021/06/08 08:51:19;;;;;;;7.13;4.50;;;20.90;99.90;;;;;;5075366;28;20208;-77
2021/06/08 08:53:44;;;;;;;7.63;4.67;;;20.90;99.90;;;;;;5074346;28;20177;-77
2021/06/08 08:56:10;;;;;;;10.20;5.47;;;21.00;99.90;;;;;;5074341;28;20217;-77
2021/06/08 08:58:36;;;;;;;8.20;5.00;;;21.20;99.90;;;;;;5075033;28;20192;-77
2021/06/08 09:01:01;;;;;;;7.30;4.43;;;21.30;99.90;;;;;;5074746;28;20361;-77
2021/06/08 09:03:27;;;;;;;5.37;4.60;;;21.30;99.90;;;;;;5091717;28;20192;-77
2021/06/08 09:05:56;;;;;;;7.17;4.83;;;21.50;99.90;;;;;;5076511;28;20177;-77
2021/06/08 09:08:21;;;;;;;6.53;4.50;;;21.60;99.90;;;;;;5089849;28;20280;-77
2021/06/08 09:10:47;;;;;;;6.00;4.57;;;21.70;99.90;;;;;;5094710;28;20671;-77
2021/06/08 09:13:13;;;;;;;6.23;4.60;;;21.90;99.90;;;;;;5110928;28;20180;-77
2021/06/08 09:15:38;;;;;;;6.10;4.50;;;22.00;99.90;;;;;;5110761;28;20576;-77
2021/06/08 09:18:04;;;;;;;6.23;4.33;;;21.80;99.90;;;;;;5111134;28;20172;-77
2021/06/08 09:20:30;;;;;;;5.90;4.60;;;21.70;99.90;;;;;;5090403;28;20192;-77
2021/06/08 09:22:57;;;;;;;6.53;4.63;;;21.90;99.90;;;;;;5094643;28;20197;-78
2021/06/08 09:25:38;;;;;;;7.17;4.33;;;21.90;99.90;;;;;;5091105;28;20249;-77
2021/06/08 09:28:23;;;;;;;6.40;4.63;;;21.90;99.90;;;;;;5092772;28;20185;-76
2021/06/08 09:30:52;;;;;;;8.17;4.73;;;21.90;99.90;;;;;;5092619;28;20233;-76
2021/06/08 09:33:21;;;;;;;6.07;4.07;;;21.80;99.90;;;;;;5091584;28;20204;-77
2021/06/08 09:35:52;;;;;;;11.07;5.30;;;21.90;99.90;;;;;;5091221;28;20169;-77
2021/06/08 09:38:17;;;;;;;8.60;5.00;;;21.80;99.90;;;;;;5091449;28;20220;-78
2021/06/08 09:40:43;;;;;;;8.87;5.60;;;21.80;99.90;;;;;;5091131;28;20181;-77
2021/06/08 09:43:09;;;;;;;6.00;4.33;;;21.80;99.90;;;;;;5091572;28;20203;-77
2021/06/08 09:45:53;;;;;;;7.87;5.13;;;22.10;99.90;;;;;;5091136;28;20260;-77
2021/06/08 09:48:19;;;;;;;7.17;4.83;;;22.10;99.90;;;;;;5091281;28;20268;-78
2021/06/08 09:50:51;;;;;;;7.40;4.87;;;21.80;99.90;;;;;;5093108;28;20660;-79
2021/06/08 09:53:27;;;;;;;7.60;4.90;;;21.40;99.90;;;;;;5091624;28;20234;-77
2021/06/08 09:56:05;;;;;;;6.30;4.77;;;21.10;99.90;;;;;;5074401;28;20273;-78
2021/06/08 09:58:31;;;;;;;9.07;5.40;;;21.10;99.90;;;;;;5075640;28;20177;-79
2021/06/08 10:01:26;;;;;;;8.50;5.27;;;21.40;99.90;;;;;;5075515;28;20192;-79
2021/06/08 10:03:56;;;;;;;8.33;5.23;;;21.80;99.90;;;;;;5076233;28;20176;-80
2021/06/08 10:06:27;;;;;;;9.57;4.90;;;22.10;99.90;;;;;;5076963;28;20192;-82
2021/06/08 10:09:01;;;;;;;7.70;4.33;;;22.20;99.90;;;;;;5076945;28;20764;-81
2021/06/08 10:11:28;;;;;;;6.73;4.30;;;22.40;99.90;;;;;;5093363;28;20238;-80
2021/06/08 10:13:59;;;;;;;6.93;4.63;;;22.30;99.90;;;;;;5076812;28;20226;-82
2021/06/08 10:16:27;;;;;;;7.93;5.07;;;22.10;99.90;;;;;;5078099;28;20230;-80
2021/06/08 10:18:53;;;;;;;4.73;3.90;;;21.90;99.90;;;;;;5077517;28;20173;-81
2021/06/08 10:21:39;;;;;;;6.00;4.33;;;21.80;99.90;;;;;;5094895;28;20203;-80
2021/06/08 10:24:10;;;;;;;6.77;4.60;;;21.60;99.90;;;;;;5077647;28;20212;-79
2021/06/08 10:26:37;;;;;;;7.83;5.30;;;21.60;99.90;;;;;;5080343;28;20181;-81
2021/06/08 10:29:07;;;;;;;7.47;5.27;;;21.70;99.90;;;;;;5083183;28;20793;-78
2021/06/08 10:31:34;;;;;;;8.63;6.00;;;21.70;99.90;;;;;;5078061;28;20192;-75
2021/06/08 10:34:00;;;;;;;7.37;5.63;;;21.80;99.90;;;;;;5076949;28;20177;-78
2021/06/08 10:36:26;;;;;;;9.37;6.30;;;21.80;99.90;;;;;;5079183;28;20664;-79
2021/06/08 10:38:51;;;;;;;8.20;6.17;;;21.80;99.90;;;;;;5079149;28;20181;-79
2021/06/08 10:41:17;;;;;;;8.10;5.20;;;21.80;99.90;;;;;;5079078;28;20235;-78
2021/06/08 10:43:42;;;;;;;8.67;5.57;;;21.90;99.90;;;;;;5095917;28;20703;-79
2021/06/08 10:46:27;;;;;;;7.93;5.90;;;22.00;99.90;;;;;;5079332;28;20553;-79
2021/06/08 10:48:53;;;;;;;7.33;5.00;;;21.80;99.90;;;;;;5080296;28;20675;-80
2021/06/08 10:51:21;;;;;;;8.53;5.57;;;21.80;99.90;;;;;;5078511;28;20249;-78
2021/06/08 10:53:59;;;;;;;7.43;5.30;;;21.70;99.90;;;;;;5064274;28;20173;-81
2021/06/08 10:56:29;;;;;;;6.67;5.27;;;21.50;99.90;;;;;;5080794;28;20184;-79
2021/06/08 10:58:59;;;;;;;7.60;5.23;;;21.30;99.90;;;;;;5096268;28;20651;-80
2021/06/08 11:01:34;;;;;;;7.00;5.43;;;21.40;99.90;;;;;;5078575;28;20291;-80
2021/06/08 11:04:01;;;;;;;7.70;5.53;;;21.60;99.90;;;;;;5105466;28;20226;-77
2021/06/08 11:06:50;;;;;;;7.60;5.43;;;21.60;99.90;;;;;;5081427;28;20578;-80
2021/06/08 11:09:36;;;;;;;8.83;5.90;;;21.70;99.90;;;;;;5095247;28;20208;-79
2021/06/08 11:12:09;;;;;;;9.10;5.40;;;22.00;99.90;;;;;;5095387;28;20200;-78
2021/06/08 11:17:35;;;;;;;6.50;4.53;;;22.00;99.90;;;;;;5097031;28;20176;-80
2021/06/08 11:20:06;;;;;;;7.10;4.80;;;22.00;99.90;;;;;;5077379;28;20181;-77
2021/06/08 11:22:32;;;;;;;6.07;4.47;;;21.90;99.90;;;;;;5096145;28;20192;-77
2021/06/08 11:24:57;;;;;;;7.30;4.87;;;22.00;99.90;;;;;;5095651;28;20289;-77
2021/06/08 11:27:25;;;;;;;6.63;4.80;;;22.20;99.90;;;;;;5101675;28;20240;-77
2021/06/08 11:29:54;;;;;;;6.80;5.43;;;22.60;99.90;;;;;;5102789;28;20208;-77
2021/06/08 11:32:29;;;;;;;6.83;4.87;;;22.70;99.90;;;;;;5084708;28;20207;-77
2021/06/08 11:35:19;;;;;;;8.43;5.60;;;22.90;99.90;;;;;;5097858;28;20177;-79
2021/06/08 11:38:01;;;;;;;7.30;5.00;;;23.10;99.90;;;;;;5101209;28;20195;-77
2021/06/08 11:40:39;;;;;;;8.40;5.20;;;23.10;99.90;;;;;;5114339;28;20184;-77
2021/06/08 11:43:11;;;;;;;8.37;5.40;;;23.00;99.90;;;;;;5115773;28;20577;-76
2021/06/08 11:45:44;;;;;;;8.20;5.30;;;23.10;99.90;;;;;;5115721;28;20247;-76
2021/06/08 11:48:32;;;;;;;8.03;5.90;;;23.00;99.90;;;;;;5097154;28;20176;-78
2021/06/08 11:50:58;;;;;;;7.90;5.90;;;22.80;99.90;;;;;;5113769;28;20249;-78
2021/06/08 11:53:24;;;;;;;7.33;5.27;;;22.60;99.90;;;;;;5114260;28;20267;-79
2021/06/08 11:56:05;;;;;;;7.03;5.30;;;22.60;99.90;;;;;;5114546;28;20199;-78
2021/06/08 11:58:32;;;;;;;6.10;4.70;;;22.70;99.90;;;;;;5097062;28;20183;-77
2021/06/08 12:00:57;;;;;;;7.47;4.67;;;22.90;99.90;;;;;;5096877;28;20199;-78
2021/06/08 12:03:36;;;;;;;7.63;4.53;;;23.00;99.90;;;;;;5111609;28;20551;-77
2021/06/08 12:06:03;;;;;;;6.87;5.67;;;23.20;99.90;;;;;;5079504;28;20180;-77
2021/06/08 12:08:31;;;;;;;8.47;5.43;;;23.20;99.90;;;;;;5097376;28;20173;-78
2021/06/08 12:10:56;;;;;;;8.27;6.10;;;23.30;99.90;;;;;;5080208;28;20203;-77
2021/06/08 12:13:32;;;;;;;6.90;5.27;;;23.30;99.90;;;;;;5080414;28;20176;-78
2021/06/08 12:15:58;;;;;;;7.93;5.87;;;23.20;99.90;;;;;;5080709;28;20270;-79
2021/06/08 12:18:38;;;;;;;7.40;5.80;;;23.10;99.90;;;;;;5078834;28;20204;-77
2021/06/08 12:21:25;;;;;;;8.47;5.93;;;23.00;99.90;;;;;;5096424;28;20195;-78
2021/06/08 12:23:51;;;;;;;6.57;5.30;;;22.80;99.90;;;;;;5083925;28;21001;-79
2021/06/08 12:26:18;;;;;;;7.97;5.27;;;22.60;99.90;;;;;;5078581;28;20271;-77
2021/06/08 12:29:00;;;;;;;11.07;6.43;;;22.70;99.90;;;;;;5103997;28;20171;-76
2021/06/08 12:31:26;;;;;;;8.53;4.97;;;22.70;99.90;;;;;;5108022;28;20196;-78
2021/06/08 12:33:52;;;;;;;8.03;5.67;;;22.70;99.90;;;;;;5110771;28;20191;-77
2021/06/08 12:36:17;;;;;;;10.03;6.67;;;22.80;99.90;;;;;;5091788;28;20184;-77
2021/06/08 12:38:50;;;;;;;8.50;6.17;;;22.80;99.90;;;;;;5079882;28;20238;-79
2021/06/08 12:41:16;;;;;;;6.63;5.17;;;22.80;99.90;;;;;;5104739;28;20257;-77
2021/06/08 12:43:50;;;;;;;6.83;5.63;;;22.60;99.90;;;;;;5107834;28;20664;-78
2021/06/08 12:46:29;;;;;;;6.83;5.60;;;22.60;99.90;;;;;;5077454;28;20188;-77
2021/06/08 12:49:09;;;;;;;7.43;5.57;;;22.60;99.90;;;;;;5097624;28;20261;-77
2021/06/08 12:51:36;;;;;;;6.57;4.87;;;22.60;99.90;;;;;;5082272;28;20279;-77
2021/06/08 12:54:05;;;;;;;8.10;6.20;;;22.60;99.90;;;;;;5110328;28;20267;-78